Beacon Falls, CT (06403)

3:48 AM EST on December 06, 2016 (GMT -0500)
Beacon Falls East | | Change Station
Active Advisory: Special Statement

Elev 335 ft 41.45 °N, 73.03 °W | Updated 8 minutes ago

Clear
Clear
25.7 °F
Feels Like 26 °F
N
0.0
Wind Variable Wind from North
Gusts 0.0 mph

Today
High -- | Low -- °F
--% Chance of Precip.
Yesterday
High -- | Low -- °F
Precip. -- in
Pressure 30.10 in
Visibility 10.0 miles
Clouds Clear
Windchill 26 °F
Dew Point 25 °F
Humidity 97%
Rainfall 0.00 in
Snow Depth Not available.
7:04 AM 4:22 PM
Waxing Crescent, 39% visible
METAR KOXC 060835Z 00000KT 10SM CLR M02/M06 A3010 RMK AO1
Pressure 30.10 in
Visibility 10.0 miles
Clouds Clear
Windchill 26 °F
Dew Point 25 °F
Humidity 97%
Rainfall 0.00 in
Snow Depth Not available.
7:04 AM 4:22 PM
Waxing Crescent, 39% visible
METAR KOXC 060835Z 00000KT 10SM CLR M02/M06 A3010 RMK AO1

10-Day Weather Forecast

Almanac

Astronomy

Dec. 06, 2016 Rise Set
Actual Time
Civil Twilight
Nautical Twilight
Astronomical Twilight
Moon
Length of Visible Light
Length of Day
Tomorrow will be .
, % of the Moon is Illuminated

Today's Extremes

State Highs State Lows

Community

WunderPhotos

Upload Photos

1,955,930 photos uploaded!

WunderBlog® & News

Nearby

Air Quality

  Air Quality AQ Index Pollutant
Not available.

Snow Depth

Station Depth Elevation

Earthquake Activity

City Distance Mag. Time & Date
Minimum magnitude displayed is 2.5.

Coastal Water Temperatures

Place Temperature

Stations

Nearby Weather Stations

Station Location Temp. Windchill Dew Point Humidity Wind Precip. Elev Updated Type
                   

Watches & Warnings

Special Statement
Issued: 4:02 PM EST Dec. 5, 2016 – National Weather Service

... Black ice possible in spots tonight into early Tuesday
morning...

As temperatures fall below freezing tonight... any standing water
or slush left over from the snowfall of last night could refreeze
on untreated roads and walkways and cause slippery conditions.
Anyone out driving or walking tonight should be alert to the
potential for slippery conditions and use extra caution.


402 PM EST Mon Dec 5 2016

... Black ice possible in spots tonight into early Tuesday
morning...

As temperatures fall below freezing tonight... any standing water
or slush left over from the snowfall of last night could refreeze
on untreated roads and walkways and cause slippery conditions.
Anyone out driving or walking tonight should be alert to the
potential for slippery conditions and use extra caution.